Time;durP1;ratioP1;P1;durP2;ratioP2;P2;SDS_P1;SDS_P2;PMS_P1;PMS_P2;Temp;Humidity;BMP_temperature;BMP_pressure;BME280_temperature;BME280_humidity;BME280_pressure;Samples;Min_cycle;Max_cycle;Signal;HPM_P1;HPM_P2
2021/01/29 00:01:01;;;;;;;10.75;2.90;;;13.80;72.30;;;;;;4991531;28;20499;-69
2021/01/29 00:03:29;;;;;;;11.15;2.75;;;13.60;72.80;;;;;;4984262;28;20031;-68
2021/01/29 00:05:58;;;;;;;6.50;2.47;;;13.60;73.80;;;;;;4989866;28;20109;-69
2021/01/29 00:08:25;;;;;;;3.58;2.00;;;13.80;73.30;;;;;;4983452;28;20018;-69
2021/01/29 00:10:56;;;;;;;5.93;3.17;;;13.80;72.80;;;;;;4991036;28;20023;-69
2021/01/29 00:13:23;;;;;;;3.30;2.05;;;13.90;73.40;;;;;;4987232;28;20053;-69
2021/01/29 00:15:49;;;;;;;3.83;2.15;;;14.00;72.50;;;;;;4993277;28;20022;-69
2021/01/29 00:18:16;;;;;;;9.65;2.22;;;14.00;72.10;;;;;;4989187;28;20041;-69
2021/01/29 00:20:43;;;;;;;6.20;2.42;;;14.10;72.70;;;;;;4992296;28;20109;-69
2021/01/29 00:23:09;;;;;;;8.93;2.55;;;14.20;72.30;;;;;;4989661;28;20038;-69
2021/01/29 00:25:39;;;;;;;6.28;2.30;;;14.10;72.20;;;;;;4991175;28;20018;-69
2021/01/29 00:28:07;;;;;;;10.80;2.67;;;14.10;72.40;;;;;;4984108;28;20053;-69
2021/01/29 00:30:35;;;;;;;8.13;2.78;;;14.10;73.40;;;;;;4985240;28;20031;-69
2021/01/29 00:33:03;;;;;;;7.72;2.80;;;14.20;73.20;;;;;;4990018;28;20027;-69
2021/01/29 00:35:31;;;;;;;7.22;1.90;;;14.10;73.00;;;;;;4991648;28;20342;-68
2021/01/29 00:37:59;;;;;;;7.55;3.00;;;14.00;73.90;;;;;;4991428;28;20018;-69
2021/01/29 00:40:26;;;;;;;5.40;2.05;;;14.20;73.30;;;;;;4996787;28;20531;-71
2021/01/29 00:42:53;;;;;;;6.80;2.70;;;14.20;73.00;;;;;;4989575;28;20052;-69
2021/01/29 00:45:23;;;;;;;7.07;2.85;;;14.20;72.90;;;;;;4986049;28;20053;-69
2021/01/29 00:47:49;;;;;;;14.00;3.25;;;14.20;73.40;;;;;;4994906;28;20015;-68
2021/01/29 00:50:16;;;;;;;12.88;3.28;;;14.20;73.10;;;;;;4990688;28;20022;-69
2021/01/29 00:52:43;;;;;;;9.00;2.85;;;14.30;72.30;;;;;;4995114;28;20022;-70
2021/01/29 00:55:10;;;;;;;14.88;3.30;;;14.30;72.50;;;;;;4993580;28;20384;-69
2021/01/29 00:57:37;;;;;;;16.35;3.30;;;14.30;72.40;;;;;;4993015;28;20121;-72
2021/01/29 01:00:06;;;;;;;9.18;2.53;;;14.30;72.10;;;;;;4995210;28;20053;-69
2021/01/29 01:02:32;;;;;;;9.38;2.42;;;14.30;72.20;;;;;;4989243;28;20038;-69
2021/01/29 01:04:59;;;;;;;6.82;1.98;;;14.20;72.60;;;;;;4993965;28;20440;-69
2021/01/29 01:07:25;;;;;;;5.78;2.10;;;14.00;73.10;;;;;;4990274;28;20018;-69
2021/01/29 01:09:51;;;;;;;9.65;2.53;;;14.00;73.50;;;;;;4986207;28;20106;-69
2021/01/29 01:12:18;;;;;;;6.47;2.63;;;14.00;73.90;;;;;;4986639;28;20472;-69
2021/01/29 01:14:45;;;;;;;4.90;2.20;;;13.90;73.80;;;;;;4994503;28;20129;-69
2021/01/29 01:17:12;;;;;;;9.20;3.22;;;13.90;73.70;;;;;;4987641;28;20049;-69
2021/01/29 01:19:38;;;;;;;6.07;3.15;;;13.80;73.60;;;;;;4992267;28;20042;-69
2021/01/29 01:22:06;;;;;;;4.97;2.72;;;13.70;73.60;;;;;;4992598;28;20026;-69
2021/01/29 01:24:39;;;;;;;8.52;5.70;;;13.70;74.10;;;;;;4990485;28;20495;-69
2021/01/29 01:27:14;;;;;;;9.48;5.38;;;13.70;73.10;;;;;;4987842;28;20065;-68
2021/01/29 01:29:42;;;;;;;8.18;4.10;;;13.60;73.40;;;;;;4989592;28;20034;-69
2021/01/29 01:32:09;;;;;;;7.85;3.42;;;13.50;73.40;;;;;;4988572;28;20034;-69
2021/01/29 01:34:36;;;;;;;4.30;3.00;;;13.40;73.50;;;;;;4985512;28;20566;-69
2021/01/29 01:37:04;;;;;;;6.45;3.58;;;13.50;72.90;;;;;;4988924;28;20049;-69
2021/01/29 01:39:31;;;;;;;6.03;5.03;;;13.50;73.10;;;;;;4984028;28;20034;-69
2021/01/29 01:41:58;;;;;;;5.35;3.05;;;13.40;73.40;;;;;;4987873;28;20022;-69
2021/01/29 01:44:29;;;;;;;7.45;2.88;;;13.30;73.20;;;;;;4985557;28;20091;-70
2021/01/29 01:46:57;;;;;;;4.63;3.53;;;13.30;73.30;;;;;;4986374;28;20030;-70
2021/01/29 01:49:26;;;;;;;5.75;3.40;;;13.20;73.10;;;;;;4994232;28;20023;-69
2021/01/29 01:52:06;;;;;;;6.30;3.00;;;13.20;73.10;;;;;;4991520;28;20018;-69
2021/01/29 01:54:39;;;;;;;8.77;2.92;;;13.20;73.00;;;;;;4983077;28;20030;-70
2021/01/29 01:57:07;;;;;;;9.95;4.50;;;13.10;73.20;;;;;;4992898;28;20037;-70
2021/01/29 01:59:39;;;;;;;8.57;3.78;;;13.10;72.50;;;;;;4987070;28;20058;-70
2021/01/29 02:02:08;;;;;;;11.95;5.05;;;13.00;73.10;;;;;;4989893;28;20023;-69
2021/01/29 02:04:39;;;;;;;7.45;4.28;;;13.00;73.20;;;;;;4971231;28;20042;-69
2021/01/29 02:07:33;;;;;;;10.63;4.20;;;12.90;73.20;;;;;;4992278;28;20058;-70
2021/01/29 02:10:02;;;;;;;9.50;5.80;;;12.90;73.20;;;;;;4990211;28;20389;-69
2021/01/29 02:12:28;;;;;;;7.50;5.35;;;12.80;73.20;;;;;;4989493;28;20034;-69
2021/01/29 02:14:55;;;;;;;12.75;5.07;;;12.70;73.40;;;;;;4991211;28;20034;-69
2021/01/29 02:17:40;;;;;;;11.70;5.18;;;12.70;73.60;;;;;;4988735;28;20033;-69
2021/01/29 02:20:26;;;;;;;7.03;3.38;;;12.70;72.60;;;;;;4992354;28;20465;-70
2021/01/29 02:23:13;;;;;;;11.52;3.67;;;12.60;73.00;;;;;;4995485;28;20097;-69
2021/01/29 02:25:58;;;;;;;8.05;3.15;;;12.50;73.40;;;;;;4992806;28;20092;-70
2021/01/29 02:28:46;;;;;;;5.95;2.58;;;12.50;73.40;;;;;;4989571;28;20085;-70
2021/01/29 02:31:40;;;;;;;8.95;3.50;;;12.40;73.50;;;;;;4989791;28;20019;-69
2021/01/29 02:34:34;;;;;;;6.82;3.22;;;12.30;72.80;;;;;;4992292;28;20037;-70
2021/01/29 02:37:53;;;;;;;5.18;3.00;;;12.30;73.10;;;;;;4984939;28;20469;-69
2021/01/29 02:40:28;;;;;;;7.93;3.10;;;12.20;73.30;;;;;;4968768;28;20034;-69
2021/01/29 02:43:13;;;;;;;6.03;4.15;;;12.10;73.20;;;;;;4981247;28;20046;-69
2021/01/29 02:46:28;;;;;;;5.43;4.40;;;12.10;73.20;;;;;;4983906;28;20073;-73
2021/01/29 02:49:11;;;;;;;11.88;4.38;;;12.00;73.20;;;;;;4985909;28;20034;-69
2021/01/29 02:51:44;;;;;;;9.20;3.70;;;11.90;72.80;;;;;;4987836;28;20042;-71
2021/01/29 02:54:15;;;;;;;;;;;12.00;72.20;;;;;;4989706;28;20023;-70
2021/01/29 02:56:59;;;;;;;16.52;4.97;;;12.00;72.10;;;;;;4990597;28;19913;-70
2021/01/29 02:59:38;;;;;;;9.35;3.83;;;11.90;72.00;;;;;;4980097;28;20099;-69
2021/01/29 03:02:24;;;;;;;14.63;4.82;;;11.70;72.60;;;;;;4989842;28;20033;-69
2021/01/29 03:05:05;;;;;;;10.13;4.65;;;11.60;72.50;;;;;;4983060;28;20475;-69
2021/01/29 03:08:04;;;;;;;16.40;5.43;;;11.50;73.40;;;;;;4977717;28;20342;-69
2021/01/29 03:10:52;;;;;;;12.35;4.18;;;11.40;72.80;;;;;;4982092;28;20376;-70
2021/01/29 03:13:53;;;;;;;15.45;3.45;;;11.30;73.50;;;;;;4983373;28;20034;-70
2021/01/29 03:16:46;;;;;;;14.20;4.53;;;11.20;73.70;;;;;;4983324;28;20035;-69
2021/01/29 03:19:26;;;;;;;10.95;4.43;;;11.30;73.60;;;;;;4985640;28;20045;-69
2021/01/29 03:22:00;;;;;;;6.30;3.30;;;11.20;74.10;;;;;;4991142;28;20030;-69
2021/01/29 03:24:38;;;;;;;13.98;3.92;;;11.20;74.20;;;;;;4986822;28;20511;-70
2021/01/29 03:27:16;;;;;;;8.13;3.58;;;11.20;74.20;;;;;;4992831;28;20361;-71
2021/01/29 03:29:46;;;;;;;11.07;3.60;;;11.10;74.00;;;;;;4989927;28;20483;-72
2021/01/29 03:32:15;;;;;;;11.43;3.83;;;11.10;74.00;;;;;;4990338;28;20026;-72
2021/01/29 03:35:07;;;;;;;11.88;3.55;;;11.10;74.10;;;;;;4992511;28;20364;-71
2021/01/29 03:37:40;;;;;;;17.65;5.85;;;11.00;74.10;;;;;;4979588;28;20030;-72
2021/01/29 03:40:08;;;;;;;27.48;7.72;;;11.20;73.00;;;;;;4992776;28;20452;-71
2021/01/29 03:42:43;;;;;;;15.60;6.80;;;11.30;73.40;;;;;;4985132;28;20042;-72
2021/01/29 03:45:13;;;;;;;29.80;9.27;;;11.20;73.20;;;;;;4990422;28;20023;-71
2021/01/29 03:47:47;;;;;;;12.63;5.45;;;11.30;73.60;;;;;;4984920;28;20061;-71
2021/01/29 03:50:31;;;;;;;7.50;4.47;;;11.10;74.30;;;;;;4989679;28;20129;-72
2021/01/29 03:53:04;;;;;;;14.95;6.30;;;10.90;75.60;;;;;;4987948;28;20057;-74
2021/01/29 03:55:46;;;;;;;15.57;6.22;;;11.00;76.00;;;;;;4988339;28;20040;-74
2021/01/29 03:58:34;;;;;;;15.02;6.68;;;10.90;77.10;;;;;;4989983;28;20385;-72
2021/01/29 04:01:21;;;;;;;21.77;11.10;;;11.00;76.20;;;;;;4990099;28;20434;-72
2021/01/29 04:04:13;;;;;;;26.00;12.35;;;11.10;75.20;;;;;;4978556;28;20027;-73
2021/01/29 04:07:09;;;;;;;24.93;18.20;;;11.20;75.20;;;;;;4987227;28;20026;-71
2021/01/29 04:09:57;;;;;;;14.07;9.13;;;11.40;75.20;;;;;;4994117;28;20304;-69
2021/01/29 04:12:51;;;;;;;8.13;7.25;;;11.30;75.50;;;;;;4989089;28;20015;-71
2021/01/29 04:15:24;;;;;;;15.10;9.80;;;11.30;76.00;;;;;;4992807;28;20077;-71
2021/01/29 04:17:59;;;;;;;23.88;10.25;;;11.50;75.20;;;;;;4991014;28;20022;-71
2021/01/29 04:20:40;;;;;;;21.25;9.70;;;11.70;75.50;;;;;;4989990;28;20078;-75
2021/01/29 04:23:13;;;;;;;19.63;8.02;;;11.70;74.90;;;;;;4984683;28;20432;-73
2021/01/29 04:25:45;;;;;;;21.45;7.88;;;11.70;74.70;;;;;;4987778;28;20027;-71
2021/01/29 04:28:17;;;;;;;23.58;9.63;;;11.70;74.90;;;;;;4994628;28;20027;-71
2021/01/29 04:30:48;;;;;;;18.70;8.98;;;11.70;75.30;;;;;;4995263;28;20451;-70
2021/01/29 04:33:24;;;;;;;22.08;8.27;;;11.80;75.90;;;;;;4993782;28;20471;-70
2021/01/29 04:35:53;;;;;;;19.60;8.30;;;11.90;76.10;;;;;;4996420;28;20031;-70
2021/01/29 04:38:41;;;;;;;23.73;11.60;;;11.80;75.80;;;;;;4996765;28;20367;-70
2021/01/29 04:41:20;;;;;;;22.30;10.30;;;11.80;75.70;;;;;;4990534;28;20027;-70
2021/01/29 04:44:05;;;;;;;14.98;8.70;;;11.80;76.10;;;;;;4994875;28;20030;-72
2021/01/29 04:46:49;;;;;;;13.40;6.70;;;11.70;76.00;;;;;;4984054;28;20030;-70
2021/01/29 04:49:54;;;;;;;13.18;6.97;;;11.70;76.20;;;;;;4990405;28;20018;-70
2021/01/29 04:52:38;;;;;;;11.57;4.85;;;11.70;76.40;;;;;;4985636;28;20508;-70
2021/01/29 04:55:27;;;;;;;6.30;5.38;;;11.70;76.50;;;;;;4991815;28;20034;-70
2021/01/29 04:58:09;;;;;;;21.48;6.35;;;11.70;76.60;;;;;;4993934;28;20101;-70
2021/01/29 05:00:48;;;;;;;9.00;5.32;;;11.80;75.60;;;;;;4983713;28;20046;-70
2021/01/29 05:03:29;;;;;;;11.23;5.30;;;11.80;75.80;;;;;;4988148;28;20116;-70
2021/01/29 05:06:17;;;;;;;13.32;5.22;;;11.70;75.60;;;;;;4995552;28;20031;-69
2021/01/29 05:09:06;;;;;;;11.52;7.45;;;11.70;75.20;;;;;;4989345;28;20030;-69
2021/01/29 05:11:55;;;;;;;19.15;7.60;;;11.80;75.40;;;;;;4983733;28;20030;-70
2021/01/29 05:14:37;;;;;;;16.13;7.85;;;11.70;75.00;;;;;;4987418;28;20485;-70
2021/01/29 05:17:19;;;;;;;16.17;5.07;;;11.80;74.90;;;;;;4990350;28;20457;-69
2021/01/29 05:19:55;;;;;;;10.88;5.07;;;11.70;74.90;;;;;;4990671;28;20101;-70
2021/01/29 05:22:50;;;;;;;8.57;4.03;;;11.60;75.00;;;;;;4987771;28;20441;-70
2021/01/29 05:25:16;;;;;;;10.35;3.60;;;11.50;75.60;;;;;;4987985;28;20030;-70
2021/01/29 05:28:01;;;;;;;5.50;3.05;;;11.50;75.60;;;;;;4983604;28;20435;-70
2021/01/29 05:30:46;;;;;;;5.90;3.67;;;11.50;75.70;;;;;;4990628;28;20058;-69
2021/01/29 05:33:28;;;;;;;6.55;3.90;;;11.50;75.40;;;;;;4986942;28;20523;-69
2021/01/29 05:36:29;;;;;;;7.70;3.33;;;11.40;75.40;;;;;;4991209;28;20464;-70
2021/01/29 05:39:20;;;;;;;25.20;14.05;;;11.40;75.20;;;;;;4989775;28;20468;-70
2021/01/29 05:42:04;;;;;;;14.93;7.43;;;11.50;75.00;;;;;;4987216;28;20497;-70
2021/01/29 05:44:49;;;;;;;18.48;7.57;;;11.60;75.10;;;;;;4987373;28;20111;-70
2021/01/29 05:47:56;;;;;;;16.30;7.82;;;11.60;74.90;;;;;;4987755;28;20026;-70
2021/01/29 05:50:32;;;;;;;14.85;6.65;;;11.50;74.60;;;;;;4985412;28;20077;-70
2021/01/29 05:53:19;;;;;;;28.08;12.25;;;11.50;75.10;;;;;;4991547;28;20335;-70
2021/01/29 05:56:00;;;;;;;13.63;5.57;;;11.50;75.10;;;;;;4992461;28;20025;-70
2021/01/29 05:58:52;;;;;;;15.30;7.25;;;11.50;75.00;;;;;;4982940;28;20381;-70
2021/01/29 06:01:27;;;;;;;11.98;5.80;;;11.40;74.70;;;;;;4985331;28;20109;-70
2021/01/29 06:03:54;;;;;;;14.52;6.25;;;11.40;75.30;;;;;;4991203;28;20749;-70
2021/01/29 06:06:54;;;;;;;14.07;5.28;;;11.30;75.30;;;;;;4991247;28;20500;-70
2021/01/29 06:09:42;;;;;;;8.48;5.20;;;11.10;75.20;;;;;;4988038;28;20113;-70
2021/01/29 06:12:55;;;;;;;9.18;4.30;;;11.10;75.60;;;;;;4982362;28;20495;-70
2021/01/29 06:15:39;;;;;;;;;;;11.00;75.20;;;;;;4983093;28;20520;-69
2021/01/29 06:18:28;;;;;;;13.90;3.92;;;11.00;75.60;;;;;;4990178;28;19996;-70
2021/01/29 06:21:00;;;;;;;8.90;3.95;;;10.90;75.70;;;;;;4986219;28;20496;-70
2021/01/29 06:23:44;;;;;;;;;;;10.90;75.80;;;;;;4989512;28;20053;-70
2021/01/29 06:26:37;;;;;;;7.85;3.47;;;11.00;76.00;;;;;;4984324;28;19918;-70
2021/01/29 06:29:22;;;;;;;14.63;5.15;;;10.90;75.90;;;;;;4990672;28;20042;-70
2021/01/29 06:32:10;;;;;;;15.95;4.57;;;11.00;76.60;;;;;;4988771;28;20073;-70
2021/01/29 06:34:42;;;;;;;13.27;4.72;;;11.00;76.30;;;;;;4987401;28;20034;-70
2021/01/29 06:37:31;;;;;;;12.38;4.63;;;11.10;76.70;;;;;;4989912;28;20030;-70
2021/01/29 06:40:15;;;;;;;11.30;4.10;;;11.20;76.70;;;;;;4986857;28;20026;-70
2021/01/29 06:42:53;;;;;;;9.20;4.43;;;11.20;76.50;;;;;;4989373;28;20027;-70
2021/01/29 06:45:51;;;;;;;5.63;3.25;;;11.10;76.50;;;;;;4985266;28;20031;-70
2021/01/29 06:48:27;;;;;;;6.38;4.13;;;11.10;76.70;;;;;;4983959;28;20365;-70
2021/01/29 06:51:24;;;;;;;12.77;4.75;;;11.00;77.00;;;;;;4986081;28;20080;-70
2021/01/29 06:54:27;;;;;;;6.65;4.60;;;11.10;76.30;;;;;;4987745;28;20057;-70
2021/01/29 06:57:28;;;;;;;11.07;5.45;;;11.10;76.80;;;;;;4987929;28;20054;-70
2021/01/29 07:00:28;;;;;;;7.32;4.78;;;11.10;76.90;;;;;;4983767;28;20030;-70
2021/01/29 07:03:16;;;;;;;6.88;4.72;;;11.10;76.90;;;;;;4976257;28;20061;-70
2021/01/29 07:06:18;;;;;;;10.60;4.43;;;11.10;76.90;;;;;;4985866;28;20106;-70
2021/01/29 07:09:11;;;;;;;7.32;4.57;;;11.20;77.10;;;;;;4988817;28;20350;-70
2021/01/29 07:11:56;;;;;;;;;;;11.20;77.10;;;;;;4977966;28;20032;-71
2021/01/29 07:14:41;;;;;;;7.35;3.75;;;11.30;76.60;;;;;;4981946;28;19918;-70
2021/01/29 07:17:07;;;;;;;4.22;3.33;;;11.30;76.70;;;;;;4985798;28;20137;-69
2021/01/29 07:20:06;;;;;;;10.13;3.40;;;11.30;76.70;;;;;;4985391;28;20034;-70
2021/01/29 07:22:57;;;;;;;12.40;3.55;;;11.30;76.90;;;;;;4987252;28;20465;-70
2021/01/29 07:25:49;;;;;;;4.78;2.85;;;11.20;76.80;;;;;;4988633;28;20556;-70
2021/01/29 07:28:30;;;;;;;3.97;3.28;;;11.20;76.90;;;;;;4985170;28;20471;-70
2021/01/29 07:31:08;;;;;;;4.80;3.47;;;11.30;76.80;;;;;;4985588;28;20030;-70
2021/01/29 07:33:44;;;;;;;2.83;2.38;;;11.30;77.30;;;;;;4990658;28;20161;-70
2021/01/29 07:36:38;;;;;;;5.22;3.17;;;11.30;76.70;;;;;;4990051;28;20392;-69
2021/01/29 07:39:39;;;;;;;3.08;2.70;;;11.30;76.50;;;;;;4988759;28;20053;-69
2021/01/29 07:42:30;;;;;;;4.43;2.50;;;11.30;76.40;;;;;;4986906;28;21192;-69
2021/01/29 07:45:42;;;;;;;2.63;2.10;;;11.30;76.30;;;;;;4997493;28;20038;-69
2021/01/29 07:48:29;;;;;;;5.15;3.13;;;11.30;76.20;;;;;;4991582;28;20459;-70
2021/01/29 07:51:04;;;;;;;3.78;3.10;;;11.30;75.90;;;;;;4996708;28;20034;-70
2021/01/29 07:53:58;;;;;;;4.82;3.17;;;11.30;75.50;;;;;;4994711;28;20499;-69
2021/01/29 07:56:46;;;;;;;9.05;5.32;;;11.20;75.50;;;;;;4996153;28;20034;-69
2021/01/29 07:59:49;;;;;;;10.25;5.22;;;11.20;75.10;;;;;;4992571;28;20022;-69
2021/01/29 08:02:27;;;;;;;;;;;11.40;74.90;;;;;;4993361;28;20015;-69
2021/01/29 08:05:30;;;;;;;10.45;4.60;;;11.20;74.80;;;;;;4989813;28;19921;-70
2021/01/29 08:08:09;;;;;;;13.50;4.55;;;11.10;75.10;;;;;;4989457;28;20034;-70
2021/01/29 08:10:39;;;;;;;8.05;4.88;;;11.00;75.20;;;;;;4993514;28;20049;-69
2021/01/29 08:13:19;;;;;;;8.60;4.80;;;11.10;75.20;;;;;;4993182;28;20344;-70
2021/01/29 08:15:58;;;;;;;14.60;4.30;;;11.00;75.50;;;;;;4995796;28;20034;-70
2021/01/29 08:18:40;;;;;;;7.55;4.43;;;10.90;75.80;;;;;;4997264;28;20084;-70
2021/01/29 08:21:06;;;;;;;10.00;5.05;;;11.00;75.80;;;;;;4993570;28;20104;-70
2021/01/29 08:24:00;;;;;;;11.35;4.55;;;11.00;75.80;;;;;;4996373;28;20128;-70
2021/01/29 08:26:33;;;;;;;8.25;5.45;;;11.00;75.90;;;;;;4991608;28;20026;-69
2021/01/29 08:29:37;;;;;;;7.38;4.32;;;11.00;75.60;;;;;;4992220;28;20561;-69
2021/01/29 08:32:25;;;;;;;4.03;3.70;;;11.00;76.20;;;;;;4995462;28;20027;-69
2021/01/29 08:35:10;;;;;;;9.55;4.20;;;11.00;76.80;;;;;;4987888;28;20027;-69
2021/01/29 08:38:02;;;;;;;7.43;4.35;;;11.00;76.80;;;;;;4991077;28;20050;-69
2021/01/29 08:40:32;;;;;;;14.07;5.47;;;11.00;76.50;;;;;;4982006;28;20039;-69
2021/01/29 08:43:35;;;;;;;6.47;3.38;;;11.00;76.70;;;;;;4987351;28;20026;-70
2021/01/29 08:46:37;;;;;;;8.27;3.78;;;11.00;77.30;;;;;;4990868;28;20073;-70
2021/01/29 08:49:40;;;;;;;11.55;5.15;;;11.00;77.00;;;;;;4969815;28;20472;-70
2021/01/29 08:52:32;;;;;;;11.35;5.20;;;11.10;76.40;;;;;;4987220;28;20042;-70
2021/01/29 08:55:19;;;;;;;15.05;5.78;;;11.50;76.30;;;;;;4993058;28;20472;-70
2021/01/29 08:58:14;;;;;;;11.52;4.22;;;11.60;75.70;;;;;;4984668;28;20027;-70
2021/01/29 09:00:41;;;;;;;10.20;3.67;;;11.40;75.40;;;;;;4979340;28;20038;-70
2021/01/29 09:03:31;;;;;;;17.20;4.35;;;11.40;75.50;;;;;;4991960;28;20168;-70
2021/01/29 09:06:24;;;;;;;15.98;4.43;;;11.50;76.30;;;;;;4988490;28;20117;-70
2021/01/29 09:09:02;;;;;;;11.65;4.70;;;11.50;75.70;;;;;;4990763;28;20029;-70
2021/01/29 09:11:46;;;;;;;7.75;2.97;;;11.50;75.70;;;;;;4986202;28;20030;-70
2021/01/29 09:14:30;;;;;;;6.65;2.38;;;11.50;73.40;;;;;;4987148;28;20082;-70
2021/01/29 09:17:19;;;;;;;10.63;2.65;;;11.40;73.30;;;;;;4991315;28;20920;-70
2021/01/29 09:20:00;;;;;;;10.07;2.47;;;11.20;74.70;;;;;;4992770;28;20030;-70
2021/01/29 09:22:50;;;;;;;14.53;3.33;;;11.20;75.50;;;;;;4994199;28;20030;-71
2021/01/29 09:25:29;;;;;;;11.93;3.35;;;11.20;75.40;;;;;;4993133;28;20026;-71
2021/01/29 09:28:05;;;;;;;4.40;2.33;;;11.10;75.60;;;;;;4994958;28;20117;-70
2021/01/29 09:30:36;;;;;;;2.97;2.20;;;11.00;75.50;;;;;;4984095;28;20038;-70
2021/01/29 09:33:35;;;;;;;5.78;2.40;;;10.90;76.00;;;;;;4990559;28;20023;-70
2021/01/29 09:36:23;;;;;;;5.43;1.80;;;10.90;76.20;;;;;;4988103;28;20042;-71
2021/01/29 09:38:53;;;;;;;1.95;1.85;;;10.80;76.30;;;;;;4991863;28;20420;-70
2021/01/29 09:41:39;;;;;;;5.88;2.10;;;10.70;76.60;;;;;;4990447;28;20138;-71
2021/01/29 09:44:29;;;;;;;6.32;2.00;;;10.70;77.10;;;;;;4995817;28;20453;-70
2021/01/29 09:47:00;;;;;;;4.72;1.75;;;10.70;77.20;;;;;;4993760;28;20467;-70
2021/01/29 09:49:32;;;;;;;2.45;1.92;;;10.70;77.20;;;;;;4994470;28;20026;-70
2021/01/29 09:52:16;;;;;;;3.67;1.90;;;10.60;77.20;;;;;;4992891;28;20035;-71
2021/01/29 09:54:45;;;;;;;10.07;2.40;;;10.60;77.30;;;;;;4995463;28;20022;-70
2021/01/29 09:57:54;;;;;;;1.92;1.65;;;10.70;76.50;;;;;;4991549;28;20429;-70
2021/01/29 10:01:05;;;;;;;3.97;1.85;;;10.60;77.10;;;;;;4992471;28;20176;-70
2021/01/29 10:03:52;;;;;;;3.53;1.70;;;10.70;76.90;;;;;;4991691;28;20380;-70
2021/01/29 10:06:27;;;;;;;4.72;1.80;;;10.70;76.20;;;;;;4992172;28;20026;-71
2021/01/29 10:08:58;;;;;;;2.28;1.55;;;10.70;76.50;;;;;;4985642;28;20015;-70
2021/01/29 10:11:58;;;;;;;3.08;1.70;;;10.60;76.60;;;;;;4990344;28;20412;-70
2021/01/29 10:14:51;;;;;;;3.15;1.58;;;10.50;77.00;;;;;;4992546;28;20046;-70
2021/01/29 10:17:35;;;;;;;2.13;1.92;;;10.50;77.10;;;;;;4991165;28;20464;-70
2021/01/29 10:20:19;;;;;;;1.63;1.52;;;10.50;77.20;;;;;;4994520;28;20355;-70
2021/01/29 10:23:16;;;;;;;4.78;1.70;;;10.50;77.20;;;;;;4996752;28;20022;-70
2021/01/29 10:25:55;;;;;;;5.47;1.83;;;10.50;77.20;;;;;;4987479;28;20038;-70
2021/01/29 10:28:57;;;;;;;2.28;1.23;;;10.60;77.30;;;;;;4997961;28;20026;-70
2021/01/29 10:31:26;;;;;;;1.70;1.60;;;10.50;77.00;;;;;;4992718;28;20457;-70
2021/01/29 10:34:20;;;;;;;2.70;1.98;;;10.40;77.80;;;;;;4988796;28;20125;-70
2021/01/29 10:36:55;;;;;;;4.03;2.58;;;10.40;77.50;;;;;;4988213;28;20023;-70
2021/01/29 10:39:22;;;;;;;1.77;1.55;;;10.30;77.60;;;;;;4987760;28;20019;-70
2021/01/29 10:41:54;;;;;;;3.30;1.80;;;10.30;77.50;;;;;;4990651;28;20034;-70
2021/01/29 10:44:29;;;;;;;2.28;1.70;;;10.40;77.80;;;;;;4987794;28;20469;-70
2021/01/29 10:47:16;;;;;;;2.28;1.60;;;10.40;77.70;;;;;;4994684;28;20462;-70
2021/01/29 10:49:57;;;;;;;1.70;1.60;;;10.40;77.50;;;;;;4986881;28;20027;-70
2021/01/29 10:52:57;;;;;;;2.78;1.65;;;10.40;77.50;;;;;;4991967;28;20028;-70
2021/01/29 10:55:39;;;;;;;2.30;1.77;;;10.40;77.90;;;;;;4986437;28;20054;-70
2021/01/29 10:58:12;;;;;;;;;;;10.50;77.50;;;;;;4993729;28;20164;-70
2021/01/29 11:00:41;;;;;;;2.80;1.63;;;10.60;77.00;;;;;;4991798;28;20395;-71
2021/01/29 11:03:15;;;;;;;4.78;1.50;;;10.60;76.80;;;;;;4992203;28;20278;-71
2021/01/29 11:05:45;;;;;;;2.30;2.10;;;10.50;77.10;;;;;;4990475;28;20018;-70
2021/01/29 11:08:38;;;;;;;3.08;1.48;;;10.50;77.40;;;;;;4992445;28;20483;-70
2021/01/29 11:11:11;;;;;;;;;;;10.60;77.50;;;;;;4991744;28;20081;-70
2021/01/29 11:13:52;;;;;;;2.30;2.08;;;10.70;77.50;;;;;;4993172;28;19906;-70
2021/01/29 11:16:29;;;;;;;5.32;2.53;;;10.70;76.60;;;;;;4991407;28;20153;-71
2021/01/29 11:19:00;;;;;;;4.93;2.97;;;10.70;76.10;;;;;;4992665;28;20022;-71
2021/01/29 11:21:37;;;;;;;3.13;1.98;;;10.80;75.80;;;;;;4991606;28;20465;-71
2021/01/29 11:24:31;;;;;;;2.08;1.98;;;10.80;75.50;;;;;;4988971;28;20472;-70
2021/01/29 11:27:20;;;;;;;1.90;1.80;;;10.70;75.90;;;;;;4991664;28;20034;-71
2021/01/29 11:30:07;;;;;;;3.60;2.08;;;10.60;76.80;;;;;;4993255;28;20408;-70
2021/01/29 11:32:39;;;;;;;9.77;2.60;;;10.50;77.30;;;;;;4984520;28;20033;-70
2021/01/29 11:35:24;;;;;;;6.47;2.50;;;10.60;76.70;;;;;;4992032;28;20019;-70
2021/01/29 11:37:56;;;;;;;6.97;2.38;;;10.80;76.00;;;;;;4991886;28;20042;-70
2021/01/29 11:40:42;;;;;;;6.05;2.55;;;10.90;75.50;;;;;;4989139;28;20034;-70
2021/01/29 11:43:27;;;;;;;2.65;1.73;;;10.70;75.40;;;;;;4991260;28;20042;-71
2021/01/29 11:46:02;;;;;;;6.90;2.53;;;10.70;75.90;;;;;;4983387;28;20058;-70
2021/01/29 11:48:34;;;;;;;3.95;1.83;;;10.60;76.00;;;;;;4992047;28;20038;-70
2021/01/29 11:51:11;;;;;;;5.10;2.63;;;10.60;76.50;;;;;;4992549;28;20026;-70
2021/01/29 11:53:55;;;;;;;5.80;2.72;;;10.60;75.90;;;;;;4992753;28;20449;-70
2021/01/29 11:56:57;;;;;;;5.90;2.08;;;10.50;76.10;;;;;;4984644;28;20583;-70
2021/01/29 11:59:45;;;;;;;6.30;2.22;;;10.50;76.20;;;;;;4992300;28;20121;-70
2021/01/29 12:02:23;;;;;;;5.57;2.25;;;10.50;76.30;;;;;;4993034;28;20038;-70
2021/01/29 12:05:07;;;;;;;4.85;2.33;;;10.40;76.80;;;;;;4986827;28;20034;-70
2021/01/29 12:07:42;;;;;;;8.73;1.83;;;10.30;77.10;;;;;;4992108;28;20042;-70
2021/01/29 12:11:04;;;;;;;2.60;2.08;;;10.30;77.40;;;;;;4991003;28;20412;-70
2021/01/29 12:13:39;;;;;;;7.68;2.40;;;10.30;77.10;;;;;;4979940;28;20109;-70
2021/01/29 12:16:18;;;;;;;6.90;2.25;;;10.50;76.70;;;;;;4981773;28;20023;-70
2021/01/29 12:18:50;;;;;;;3.75;2.22;;;10.50;75.80;;;;;;4993633;28;20034;-70
2021/01/29 12:21:20;;;;;;;7.78;4.32;;;10.30;76.10;;;;;;4990984;28;20018;-70
2021/01/29 12:23:49;;;;;;;4.80;1.83;;;10.30;76.20;;;;;;4993694;28;20038;-70
2021/01/29 12:26:26;;;;;;;7.68;1.98;;;10.30;76.00;;;;;;4990221;28;20054;-70
2021/01/29 12:29:05;;;;;;;4.72;1.73;;;10.40;75.70;;;;;;4994438;28;20042;-70
2021/01/29 12:31:52;;;;;;;1.90;1.80;;;10.20;76.10;;;;;;4985929;28;20026;-70
2021/01/29 12:34:42;;;;;;;2.97;1.95;;;10.10;76.70;;;;;;4997102;28;20023;-70
2021/01/29 12:37:21;;;;;;;2.15;1.95;;;10.10;76.50;;;;;;4995137;28;20053;-70
2021/01/29 12:40:13;;;;;;;6.43;2.25;;;10.00;76.70;;;;;;4995033;28;20037;-70
2021/01/29 12:43:00;;;;;;;5.18;2.20;;;10.10;76.10;;;;;;4992120;28;20120;-70
2021/01/29 12:45:35;;;;;;;2.00;1.90;;;10.10;76.00;;;;;;4996451;28;20057;-70
2021/01/29 12:48:28;;;;;;;5.57;1.88;;;10.00;76.30;;;;;;4985683;28;20105;-70
2021/01/29 12:51:09;;;;;;;;;;;10.00;76.40;;;;;;4995130;28;20030;-70
2021/01/29 12:53:48;;;;;;;4.20;1.92;;;10.00;76.30;;;;;;4995053;28;19906;-70
2021/01/29 12:56:25;;;;;;;2.08;1.98;;;9.90;76.20;;;;;;4996460;28;20026;-70
2021/01/29 12:58:54;;;;;;;2.05;1.90;;;9.80;76.40;;;;;;4994972;28;20352;-70
2021/01/29 13:01:35;;;;;;;1.95;1.85;;;9.80;76.60;;;;;;4995506;28;20050;-70
2021/01/29 13:04:18;;;;;;;1.67;1.58;;;9.80;76.60;;;;;;4994627;28;20353;-70
2021/01/29 13:07:03;;;;;;;6.75;2.33;;;9.70;76.50;;;;;;4992956;28;20015;-70
2021/01/29 13:09:47;;;;;;;5.88;1.98;;;9.80;75.80;;;;;;4993479;28;20037;-70
2021/01/29 13:12:47;;;;;;;6.88;2.08;;;9.80;75.20;;;;;;4987498;28;20018;-70
2021/01/29 13:15:39;;;;;;;8.68;2.10;;;9.80;75.00;;;;;;4994435;28;20023;-70
2021/01/29 13:18:41;;;;;;;2.67;1.67;;;9.80;74.90;;;;;;4987643;28;20045;-70
2021/01/29 13:21:13;;;;;;;3.45;1.95;;;9.60;74.90;;;;;;4996471;28;20030;-70
2021/01/29 13:23:41;;;;;;;7.03;2.50;;;9.50;75.00;;;;;;4994690;28;20456;-70
2021/01/29 13:26:12;;;;;;;3.20;2.83;;;9.50;75.20;;;;;;4987367;28;20031;-70
2021/01/29 13:28:55;;;;;;;4.82;2.00;;;9.50;75.30;;;;;;4995465;28;20044;-70
2021/01/29 13:31:32;;;;;;;4.47;1.98;;;9.50;75.50;;;;;;4990696;28;20408;-70
2021/01/29 13:34:21;;;;;;;3.28;2.60;;;9.40;75.10;;;;;;4996685;28;20065;-70
2021/01/29 13:37:06;;;;;;;2.75;2.13;;;9.40;75.20;;;;;;4992975;28;20097;-70
2021/01/29 13:39:41;;;;;;;2.50;1.92;;;9.40;75.30;;;;;;4989620;28;20764;-70
2021/01/29 13:42:21;;;;;;;4.85;2.25;;;9.30;74.90;;;;;;4981264;28;20030;-70
2021/01/29 13:44:56;;;;;;;4.97;3.13;;;9.30;75.10;;;;;;4995330;28;20041;-70
2021/01/29 13:47:27;;;;;;;5.35;2.15;;;9.10;75.20;;;;;;4990482;28;20944;-70
2021/01/29 13:49:54;;;;;;;3.08;2.78;;;9.10;75.70;;;;;;4996613;28;20030;-70
2021/01/29 13:52:34;;;;;;;4.70;2.33;;;9.10;76.40;;;;;;4990095;28;20030;-70
2021/01/29 13:55:33;;;;;;;4.95;2.70;;;9.00;75.60;;;;;;4991680;28;21960;-70
2021/01/29 13:58:12;;;;;;;2.78;2.55;;;9.00;76.00;;;;;;4989426;28;20022;-70